createdAt,value
2018-05-31T00:00:34.262Z,65.93
2018-05-31T00:03:00.553Z,65.83
2018-05-31T00:05:26.844Z,65.74
2018-05-31T00:07:53.143Z,65.95
2018-05-31T00:10:19.472Z,66.47
2018-05-31T00:12:45.759Z,66.44
2018-05-31T00:15:12.054Z,66.68
2018-05-31T00:17:38.345Z,67.01
2018-05-31T00:20:04.681Z,66.78
2018-05-31T00:22:33.220Z,66.95
2018-05-31T00:24:59.509Z,67.19
2018-05-31T00:27:25.801Z,67.18
2018-05-31T00:29:52.141Z,67.29
2018-05-31T00:32:18.432Z,67.30
2018-05-31T00:34:44.721Z,67.70
2018-05-31T00:37:11.054Z,67.73
2018-05-31T00:39:37.343Z,67.52
2018-05-31T00:42:03.690Z,67.50
2018-05-31T00:44:29.976Z,67.62
2018-05-31T00:46:56.267Z,68.03
2018-05-31T00:49:22.561Z,66.85
2018-05-31T00:51:48.865Z,67.75
2018-05-31T00:54:15.158Z,66.76
2018-05-31T00:56:41.451Z,65.23
2018-05-31T00:59:07.791Z,65.20
2018-05-31T01:01:34.084Z,64.03
2018-05-31T01:04:00.372Z,66.04
2018-05-31T01:06:26.674Z,65.92
2018-05-31T01:08:52.955Z,65.81
2018-05-31T01:11:19.250Z,65.14
2018-05-31T01:13:45.550Z,64.90
2018-05-31T01:16:11.853Z,64.17
2018-05-31T01:18:38.140Z,64.48
2018-05-31T01:21:04.439Z,63.74
2018-05-31T01:23:30.743Z,63.83
2018-05-31T01:25:57.073Z,65.17
2018-05-31T01:28:23.371Z,66.85
2018-05-31T01:30:49.659Z,68.16
2018-05-31T01:33:15.959Z,68.88
2018-05-31T01:35:42.248Z,68.72
2018-05-31T01:38:08.568Z,68.74
2018-05-31T01:40:34.903Z,69.26
2018-05-31T01:43:01.247Z,70.13
2018-05-31T01:45:27.578Z,69.47
2018-05-31T01:47:53.871Z,68.49
2018-05-31T01:50:20.172Z,67.61
2018-05-31T01:52:46.516Z,67.79
2018-05-31T01:55:12.810Z,68.97
2018-05-31T01:57:39.114Z,69.70
2018-05-31T02:00:05.438Z,70.48
2018-05-31T02:02:31.733Z,71.12
2018-05-31T02:04:58.030Z,71.36
2018-05-31T02:07:24.322Z,71.45
2018-05-31T02:09:50.613Z,71.22
2018-05-31T02:12:16.904Z,71.28
2018-05-31T02:14:43.246Z,70.57
2018-05-31T02:17:09.539Z,69.99
2018-05-31T02:19:35.832Z,69.75
2018-05-31T02:22:02.121Z,70.15
2018-05-31T02:24:28.413Z,71.35
2018-05-31T02:26:54.699Z,69.23
2018-05-31T02:29:20.989Z,69.51
2018-05-31T02:31:47.278Z,69.44
2018-05-31T02:34:13.567Z,69.29
2018-05-31T02:36:39.868Z,69.93
2018-05-31T02:39:06.190Z,70.04
2018-05-31T02:41:32.475Z,69.82
2018-05-31T02:43:58.774Z,70.62
2018-05-31T02:46:25.112Z,69.98
2018-05-31T02:48:51.405Z,69.27
2018-05-31T02:51:17.691Z,68.34
2018-05-31T02:53:43.992Z,68.38
2018-05-31T02:56:10.292Z,68.66
2018-05-31T02:58:36.582Z,68.95
2018-05-31T03:01:02.881Z,70.31
2018-05-31T03:03:29.171Z,69.97
2018-05-31T03:05:55.476Z,69.03
2018-05-31T03:08:21.765Z,68.74
2018-05-31T03:10:48.051Z,68.73
2018-05-31T03:13:14.339Z,67.58
2018-05-31T03:15:40.633Z,67.49
2018-05-31T03:18:06.927Z,68.41
2018-05-31T03:20:33.221Z,67.18
2018-05-31T03:22:59.585Z,67.13
2018-05-31T03:25:25.913Z,67.33
2018-05-31T03:27:52.214Z,66.95
2018-05-31T03:30:18.516Z,67.65
2018-05-31T03:32:44.795Z,67.18
2018-05-31T03:35:11.124Z,66.44
2018-05-31T03:37:37.465Z,65.95
2018-05-31T03:40:03.760Z,66.02
2018-05-31T03:42:30.053Z,65.31
2018-05-31T03:44:56.353Z,65.05
2018-05-31T03:47:22.663Z,65.24
2018-05-31T03:49:48.946Z,65.35
2018-05-31T03:52:15.244Z,65.97
2018-05-31T03:54:41.534Z,66.50
2018-05-31T03:57:07.818Z,67.39
2018-05-31T03:59:34.116Z,67.48
2018-05-31T04:02:00.411Z,67.65
2018-05-31T04:04:26.708Z,66.77
2018-05-31T04:06:53.001Z,66.47
2018-05-31T04:09:19.291Z,66.43
2018-05-31T04:11:45.587Z,66.65
2018-05-31T04:14:11.881Z,65.33
2018-05-31T04:16:38.172Z,64.51
2018-05-31T04:19:04.460Z,64.71
2018-05-31T04:21:30.747Z,64.26
2018-05-31T04:23:57.041Z,64.05
2018-05-31T04:26:23.335Z,63.66
2018-05-31T04:28:49.643Z,63.05
2018-05-31T04:31:15.937Z,62.52
2018-05-31T04:33:42.300Z,62.08
2018-05-31T04:36:08.602Z,61.71
2018-05-31T04:38:34.893Z,60.66
2018-05-31T04:41:01.195Z,60.36
2018-05-31T04:43:27.535Z,59.86
2018-05-31T04:45:53.844Z,59.44
2018-05-31T04:48:20.138Z,60.05
2018-05-31T04:50:46.427Z,60.60
2018-05-31T04:53:12.720Z,60.11
2018-05-31T04:55:39.015Z,59.67
2018-05-31T04:58:05.318Z,59.52
2018-05-31T05:00:31.606Z,59.92
2018-05-31T05:02:57.940Z,58.12
2018-05-31T05:05:24.194Z,57.54
2018-05-31T05:07:50.489Z,57.62
2018-05-31T05:10:16.788Z,56.54
2018-05-31T05:12:43.091Z,55.89
2018-05-31T05:15:09.391Z,54.68
2018-05-31T05:17:35.689Z,54.43
2018-05-31T05:20:01.996Z,53.69
2018-05-31T05:22:28.330Z,52.77
2018-05-31T05:24:54.627Z,51.97
2018-05-31T05:27:20.921Z,51.28
2018-05-31T05:29:47.269Z,50.31
2018-05-31T05:32:13.546Z,46.84
2018-05-31T05:34:39.874Z,42.72
2018-05-31T05:37:06.130Z,40.29
2018-05-31T05:39:32.410Z,40.01
2018-05-31T05:41:58.740Z,43.25
2018-05-31T05:44:25.030Z,42.51
2018-05-31T05:46:51.372Z,40.67
2018-05-31T05:49:17.664Z,39.46
2018-05-31T05:51:43.949Z,37.57
2018-05-31T05:54:10.285Z,37.23
2018-05-31T05:56:36.620Z,37.34
2018-05-31T05:59:02.920Z,37.58
2018-05-31T06:01:29.358Z,37.24
2018-05-31T06:03:55.646Z,37.19
2018-05-31T06:06:21.943Z,36.12
2018-05-31T06:08:48.242Z,36.84
2018-05-31T06:11:14.533Z,38.71
2018-05-31T06:13:40.826Z,39.26
2018-05-31T06:16:07.111Z,37.65
2018-05-31T06:18:33.552Z,36.56
2018-05-31T06:20:59.904Z,35.41
2018-05-31T06:23:26.180Z,36.02
2018-05-31T06:25:52.478Z,35.22
2018-05-31T06:28:18.784Z,35.86
2018-05-31T06:30:45.150Z,36.16
2018-05-31T06:33:11.433Z,36.62
2018-05-31T06:35:37.727Z,37.24
2018-05-31T06:38:04.022Z,37.42
2018-05-31T06:40:30.329Z,37.63
2018-05-31T06:42:56.671Z,36.90
2018-05-31T06:45:22.909Z,37.75
2018-05-31T06:47:49.198Z,37.23
2018-05-31T06:50:15.483Z,36.64
2018-05-31T06:52:41.782Z,35.70
2018-05-31T06:55:08.118Z,36.24
2018-05-31T06:57:34.413Z,36.52
2018-05-31T07:00:00.756Z,35.94
2018-05-31T07:02:27.044Z,35.98
2018-05-31T07:04:53.341Z,35.92
2018-05-31T07:07:19.650Z,34.97
2018-05-31T07:09:45.985Z,36.98
2018-05-31T07:12:12.278Z,36.85
2018-05-31T07:14:38.578Z,36.24
2018-05-31T07:17:04.875Z,35.38
2018-05-31T07:19:31.187Z,35.66
2018-05-31T07:21:57.474Z,35.48
2018-05-31T07:24:23.774Z,36.93
2018-05-31T07:26:50.083Z,37.52
2018-05-31T07:29:16.384Z,35.19
2018-05-31T07:31:42.680Z,35.26
2018-05-31T07:34:09.115Z,35.62
2018-05-31T07:36:35.409Z,34.79
2018-05-31T07:39:01.702Z,34.32
2018-05-31T07:41:28.031Z,32.79
2018-05-31T07:43:54.348Z,32.70
2018-05-31T07:46:20.647Z,33.04
2018-05-31T07:48:46.937Z,33.32
2018-05-31T07:51:13.232Z,32.49
2018-05-31T07:53:39.534Z,31.98
2018-05-31T07:56:05.846Z,32.30
2018-05-31T07:58:32.136Z,32.35
2018-05-31T08:00:58.429Z,32.03
2018-05-31T08:03:24.770Z,31.56
2018-05-31T08:05:51.073Z,30.47
2018-05-31T08:08:17.377Z,29.77
2018-05-31T08:10:43.672Z,28.00
2018-05-31T08:13:09.964Z,28.04
2018-05-31T08:15:36.305Z,28.18
2018-05-31T08:18:02.603Z,27.49
2018-05-31T08:20:28.892Z,27.00
2018-05-31T08:22:55.261Z,25.68
2018-05-31T08:25:21.520Z,25.65
2018-05-31T08:27:47.814Z,26.50
2018-05-31T08:30:14.139Z,26.39
2018-05-31T08:32:40.437Z,27.17
2018-05-31T08:35:06.738Z,26.06
2018-05-31T08:37:33.024Z,24.47
2018-05-31T08:39:59.336Z,23.08
2018-05-31T08:42:25.632Z,23.92
2018-05-31T08:44:51.923Z,23.15
2018-05-31T08:47:18.206Z,23.99
2018-05-31T08:49:44.509Z,24.03
2018-05-31T08:52:10.803Z,23.24
2018-05-31T08:54:37.131Z,23.75
2018-05-31T08:57:03.420Z,24.47
2018-05-31T08:59:29.717Z,23.35
2018-05-31T09:01:56.052Z,22.56
2018-05-31T09:04:22.352Z,22.28
2018-05-31T09:06:48.712Z,21.65
2018-05-31T09:09:14.995Z,19.75
2018-05-31T09:11:41.300Z,20.79
2018-05-31T09:14:07.593Z,21.70
2018-05-31T09:16:33.908Z,21.16
2018-05-31T09:19:00.175Z,20.39
2018-05-31T09:21:26.466Z,20.65
2018-05-31T09:23:52.756Z,19.83
2018-05-31T09:26:19.059Z,20.80
2018-05-31T09:28:45.360Z,20.40
2018-05-31T09:31:11.686Z,22.11
2018-05-31T09:33:37.956Z,22.28
2018-05-31T09:36:04.241Z,21.66
2018-05-31T09:38:30.533Z,21.75
2018-05-31T09:40:56.877Z,21.23
2018-05-31T09:43:23.189Z,18.63
2018-05-31T09:45:49.479Z,19.06
2018-05-31T09:48:15.769Z,18.87
2018-05-31T09:50:42.060Z,18.59
2018-05-31T09:53:08.349Z,19.26
2018-05-31T09:55:34.642Z,19.25
2018-05-31T09:58:00.975Z,19.44
2018-05-31T10:00:27.259Z,20.00
2018-05-31T10:02:53.551Z,20.56
2018-05-31T10:05:19.891Z,20.16
2018-05-31T10:07:46.137Z,21.09
2018-05-31T10:10:12.428Z,19.66
2018-05-31T10:12:38.718Z,20.29
2018-05-31T10:15:05.008Z,20.36
2018-05-31T10:17:31.300Z,19.59
2018-05-31T10:19:57.591Z,19.77
2018-05-31T10:22:23.921Z,21.14
2018-05-31T10:24:50.215Z,21.21
2018-05-31T10:27:16.508Z,20.89
2018-05-31T10:29:42.814Z,20.45
2018-05-31T10:32:09.107Z,21.13
2018-05-31T10:34:35.395Z,20.70
2018-05-31T10:37:01.684Z,21.83
2018-05-31T10:39:28.048Z,21.56
2018-05-31T10:41:54.289Z,22.02
2018-05-31T10:44:20.578Z,22.12
2018-05-31T10:46:46.876Z,21.52
2018-05-31T10:49:13.164Z,21.14
2018-05-31T10:51:39.458Z,21.91
2018-05-31T10:54:05.753Z,22.60
2018-05-31T10:56:32.045Z,22.69
2018-05-31T10:58:58.348Z,22.63
2018-05-31T11:01:24.650Z,22.64
2018-05-31T11:03:50.948Z,22.31
2018-05-31T11:06:17.239Z,22.07
2018-05-31T11:08:43.595Z,22.45
2018-05-31T11:11:09.835Z,22.79
2018-05-31T11:13:36.142Z,23.08
2018-05-31T11:16:02.450Z,23.75
2018-05-31T11:18:28.747Z,23.21
2018-05-31T11:20:55.094Z,23.32
2018-05-31T11:23:21.384Z,23.84
2018-05-31T11:25:47.692Z,24.60
2018-05-31T11:28:13.979Z,23.77
2018-05-31T11:30:40.269Z,24.39
2018-05-31T11:33:06.568Z,24.71
2018-05-31T11:35:32.877Z,24.77
2018-05-31T11:37:59.166Z,24.48
2018-05-31T11:40:25.469Z,24.19
2018-05-31T11:42:51.758Z,24.63
2018-05-31T11:45:18.095Z,24.91
2018-05-31T11:47:44.345Z,24.06
2018-05-31T11:50:10.646Z,25.04
2018-05-31T11:52:36.941Z,25.98
2018-05-31T11:55:03.231Z,25.96
2018-05-31T11:57:29.557Z,25.78
2018-05-31T11:59:55.845Z,26.34
2018-05-31T12:02:22.155Z,26.44
2018-05-31T12:04:48.443Z,26.11
2018-05-31T12:07:14.742Z,26.48
2018-05-31T12:09:41.026Z,26.49
2018-05-31T12:12:07.350Z,26.58
2018-05-31T12:14:33.642Z,26.46
2018-05-31T12:16:59.932Z,26.72
2018-05-31T12:19:26.223Z,27.25
2018-05-31T12:21:52.529Z,27.20
2018-05-31T12:24:18.827Z,26.48
2018-05-31T12:26:45.193Z,26.57
2018-05-31T12:29:11.621Z,26.49
2018-05-31T12:31:37.912Z,26.59
2018-05-31T12:34:04.196Z,26.30
2018-05-31T12:36:30.506Z,26.16
2018-05-31T12:38:56.790Z,25.46
2018-05-31T12:41:23.086Z,24.99
2018-05-31T12:43:49.394Z,24.56
2018-05-31T12:46:15.695Z,23.68
2018-05-31T12:48:42.031Z,23.25
2018-05-31T12:51:08.321Z,22.51
2018-05-31T12:53:34.625Z,21.71
2018-05-31T12:56:00.923Z,21.04
2018-05-31T12:58:27.214Z,21.30
2018-05-31T13:00:53.654Z,21.41
2018-05-31T13:03:19.992Z,21.20
2018-05-31T13:05:46.319Z,20.98
2018-05-31T13:08:12.592Z,21.15
2018-05-31T13:10:38.896Z,21.15
2018-05-31T13:13:05.186Z,21.48
2018-05-31T13:15:31.479Z,21.26
2018-05-31T13:17:57.773Z,21.02
2018-05-31T13:20:24.070Z,21.78
2018-05-31T13:22:50.361Z,22.98
2018-05-31T13:25:16.656Z,23.79
2018-05-31T13:27:42.951Z,24.56
2018-05-31T13:30:09.240Z,25.64
2018-05-31T13:32:35.550Z,26.00
2018-05-31T13:35:01.839Z,26.01
2018-05-31T13:37:28.135Z,26.42
2018-05-31T13:39:54.431Z,26.78
2018-05-31T13:42:20.725Z,26.74
2018-05-31T13:44:47.052Z,27.17
2018-05-31T13:47:13.359Z,27.13
2018-05-31T13:49:39.695Z,27.03
2018-05-31T13:52:05.992Z,26.67
2018-05-31T13:54:32.293Z,26.80
2018-05-31T13:56:58.597Z,25.97
2018-05-31T13:59:24.896Z,26.50
2018-05-31T14:01:51.198Z,26.77
2018-05-31T14:04:17.519Z,26.03
2018-05-31T14:06:43.804Z,26.44
2018-05-31T14:09:10.109Z,26.39
2018-05-31T14:11:36.413Z,26.95
2018-05-31T14:14:02.701Z,26.70
2018-05-31T14:16:29.090Z,27.35
2018-05-31T14:18:55.383Z,26.82
2018-05-31T14:21:21.673Z,27.56
2018-05-31T14:23:47.968Z,27.30
2018-05-31T14:26:14.301Z,27.55
2018-05-31T14:28:40.595Z,27.64
2018-05-31T14:31:06.889Z,27.27
2018-05-31T14:33:33.191Z,27.47
2018-05-31T14:35:59.564Z,27.72
2018-05-31T14:38:28.701Z,27.42
2018-05-31T14:43:40.304Z,27.75
2018-05-31T14:46:06.601Z,27.96
2018-05-31T14:48:32.902Z,29.04
2018-05-31T14:50:59.193Z,29.61
2018-05-31T14:53:25.493Z,29.86
2018-05-31T14:55:51.829Z,29.54
2018-05-31T14:58:18.119Z,29.87
2018-05-31T15:00:44.405Z,29.14
2018-05-31T15:03:10.737Z,28.83
2018-05-31T15:05:37.024Z,28.87
2018-05-31T15:08:03.307Z,28.41
2018-05-31T15:10:29.604Z,28.54
2018-05-31T15:12:55.901Z,29.22
2018-05-31T15:15:22.196Z,29.47
2018-05-31T15:17:48.529Z,29.79
2018-05-31T15:20:14.818Z,29.59
2018-05-31T15:22:41.126Z,28.79
2018-05-31T15:25:07.408Z,27.84
2018-05-31T15:27:33.700Z,27.81
2018-05-31T15:30:00.037Z,27.50
2018-05-31T15:32:26.361Z,27.59
2018-05-31T15:34:52.620Z,27.34
2018-05-31T15:37:18.920Z,25.86
2018-05-31T15:39:45.221Z,27.02
2018-05-31T15:42:11.524Z,27.37
2018-05-31T15:44:37.824Z,28.20
2018-05-31T15:47:04.127Z,29.11
2018-05-31T15:49:30.416Z,29.73
2018-05-31T15:51:56.704Z,30.06
2018-05-31T15:54:23.042Z,29.64
2018-05-31T15:56:49.331Z,30.62
2018-05-31T15:59:15.627Z,32.27
2018-05-31T16:01:41.919Z,32.73
2018-05-31T16:04:08.267Z,32.03
2018-05-31T16:06:34.569Z,31.73
2018-05-31T16:09:00.856Z,31.27
2018-05-31T16:11:27.147Z,31.44
2018-05-31T16:13:53.438Z,31.98
2018-05-31T16:16:19.733Z,31.84
2018-05-31T16:18:46.035Z,32.58
2018-05-31T16:21:12.330Z,33.13
2018-05-31T16:23:38.623Z,33.33
2018-05-31T16:26:04.914Z,33.42
2018-05-31T16:28:31.268Z,33.77
2018-05-31T16:30:57.500Z,34.25
2018-05-31T16:33:23.837Z,34.51
2018-05-31T16:35:50.137Z,34.93
2018-05-31T16:38:16.436Z,35.39
2018-05-31T16:40:42.819Z,35.62
2018-05-31T16:43:09.067Z,35.87
2018-05-31T16:45:35.469Z,36.05
2018-05-31T16:48:01.777Z,36.31
2018-05-31T16:50:28.079Z,36.33
2018-05-31T16:52:54.400Z,36.49
2018-05-31T16:55:20.684Z,36.65
2018-05-31T16:57:46.985Z,36.73
2018-05-31T17:00:13.291Z,36.94
2018-05-31T17:02:39.584Z,36.55
2018-05-31T17:05:05.871Z,36.33
2018-05-31T17:07:32.159Z,36.54
2018-05-31T17:09:58.456Z,36.74
2018-05-31T17:12:24.775Z,36.79
2018-05-31T17:14:51.117Z,36.79
2018-05-31T17:17:17.368Z,36.80
2018-05-31T17:19:43.667Z,36.83
2018-05-31T17:22:09.957Z,36.95
2018-05-31T17:24:36.243Z,37.07
2018-05-31T17:27:02.533Z,37.42
2018-05-31T17:29:28.828Z,37.40
2018-05-31T17:31:55.115Z,37.59
2018-05-31T17:34:21.410Z,37.91
2018-05-31T17:36:47.717Z,38.12
2018-05-31T17:39:14.001Z,38.35
2018-05-31T17:41:40.337Z,38.59
2018-05-31T17:44:06.631Z,38.56
2018-05-31T17:46:32.924Z,38.74
2018-05-31T17:48:59.225Z,38.89
2018-05-31T17:51:25.521Z,39.13
2018-05-31T17:53:51.807Z,39.03
2018-05-31T17:56:18.103Z,39.25
2018-05-31T17:58:44.389Z,39.44
2018-05-31T18:01:10.685Z,39.55
2018-05-31T18:03:36.978Z,39.71
2018-05-31T18:06:03.277Z,40.15
2018-05-31T18:08:29.566Z,40.16
2018-05-31T18:10:55.854Z,40.35
2018-05-31T18:13:22.147Z,40.40
2018-05-31T18:15:48.497Z,40.43
2018-05-31T18:18:14.751Z,40.56
2018-05-31T18:20:41.052Z,40.67
2018-05-31T18:23:07.344Z,40.73
2018-05-31T18:25:33.639Z,40.82
2018-05-31T18:27:59.937Z,40.98
2018-05-31T18:30:26.279Z,40.81
2018-05-31T18:32:52.576Z,40.97
2018-05-31T18:35:18.870Z,41.39
2018-05-31T18:37:45.193Z,41.52
2018-05-31T18:40:11.480Z,41.80
2018-05-31T18:42:37.777Z,42.13
2018-05-31T18:45:04.062Z,42.22
2018-05-31T18:47:30.367Z,42.08
2018-05-31T18:49:56.661Z,42.53
2018-05-31T18:52:25.527Z,42.83
2018-05-31T18:54:50.473Z,43.16
2018-05-31T18:57:16.765Z,43.79
2018-05-31T18:59:43.060Z,44.24
2018-05-31T19:02:09.347Z,44.63
2018-05-31T19:04:35.647Z,44.60
2018-05-31T19:07:01.995Z,44.74
2018-05-31T19:09:28.276Z,44.88
2018-05-31T19:12:02.152Z,45.15
2018-05-31T19:14:28.462Z,45.49
2018-05-31T19:16:54.755Z,45.49
2018-05-31T19:19:21.125Z,45.59
2018-05-31T19:21:48.973Z,45.58
2018-05-31T19:24:13.886Z,45.56
2018-05-31T19:26:40.185Z,45.71
2018-05-31T19:29:06.473Z,45.63
2018-05-31T19:31:32.768Z,46.04
2018-05-31T19:33:59.082Z,46.23
2018-05-31T19:36:28.427Z,46.29
2018-05-31T19:38:58.342Z,46.58
2018-05-31T19:41:24.567Z,46.48
2018-05-31T19:43:50.868Z,46.99
2018-05-31T19:46:17.173Z,46.91
2018-05-31T19:48:43.463Z,47.23
2018-05-31T19:51:09.763Z,47.53
2018-05-31T19:53:36.063Z,47.94
2018-05-31T19:56:02.351Z,48.33
2018-05-31T19:58:28.676Z,48.74
2018-05-31T20:00:54.970Z,49.53
2018-05-31T20:03:21.276Z,49.49
2018-05-31T20:05:47.604Z,50.02
2018-05-31T20:08:13.896Z,49.85
2018-05-31T20:10:40.200Z,49.62
2018-05-31T20:13:06.550Z,49.73
2018-05-31T20:15:32.846Z,49.71
2018-05-31T20:17:59.151Z,50.14
2018-05-31T20:20:25.444Z,50.33
2018-05-31T20:22:51.735Z,50.11
2018-05-31T20:25:18.042Z,50.03
2018-05-31T20:27:44.478Z,50.03
2018-05-31T20:30:10.700Z,50.13
2018-05-31T20:32:37.004Z,50.02
2018-05-31T20:35:03.318Z,50.17
2018-05-31T20:37:29.609Z,50.09
2018-05-31T20:39:55.967Z,50.43
2018-05-31T20:42:22.258Z,50.63
2018-05-31T20:44:48.559Z,50.79
2018-05-31T20:47:14.844Z,50.59
2018-05-31T20:49:41.183Z,50.33
2018-05-31T20:52:07.480Z,50.61
2018-05-31T20:54:33.764Z,51.18
2018-05-31T20:57:00.061Z,51.12
2018-05-31T20:59:26.355Z,51.09
2018-05-31T21:01:52.648Z,51.43
2018-05-31T21:04:18.969Z,52.62
2018-05-31T21:06:45.250Z,52.58
2018-05-31T21:09:11.546Z,52.94
2018-05-31T21:11:37.843Z,53.13
2018-05-31T21:14:04.173Z,53.51
2018-05-31T21:16:30.430Z,54.01
2018-05-31T21:18:56.780Z,54.21
2018-05-31T21:21:23.076Z,53.59
2018-05-31T21:23:59.740Z,53.82
2018-05-31T21:26:28.634Z,53.64
2018-05-31T21:28:53.038Z,54.23
2018-05-31T21:31:19.340Z,54.32
2018-05-31T21:33:45.641Z,54.60
2018-05-31T21:36:11.961Z,55.17
2018-05-31T21:38:38.229Z,55.87
2018-05-31T21:41:04.531Z,56.43
2018-05-31T21:43:30.866Z,56.84
2018-05-31T21:45:57.203Z,57.18
2018-05-31T21:48:23.496Z,57.92
2018-05-31T21:50:49.856Z,58.00
2018-05-31T21:53:16.146Z,58.16
2018-05-31T21:55:42.427Z,58.25
2018-05-31T21:58:08.721Z,58.66
2018-05-31T22:00:35.017Z,58.93
2018-05-31T22:03:01.319Z,59.03
2018-05-31T22:05:27.615Z,59.19
2018-05-31T22:07:53.943Z,59.41
2018-05-31T22:10:20.233Z,59.75
2018-05-31T22:12:46.523Z,59.88
2018-05-31T22:15:12.823Z,59.97
2018-05-31T22:17:39.130Z,59.27
2018-05-31T22:20:05.423Z,59.92
2018-05-31T22:22:31.746Z,59.69
2018-05-31T22:24:58.090Z,59.98
2018-05-31T22:27:24.358Z,59.75
2018-05-31T22:29:50.694Z,59.29
2018-05-31T22:32:17.024Z,59.44
2018-05-31T22:34:43.309Z,59.77
2018-05-31T22:37:09.600Z,60.08
2018-05-31T22:39:35.888Z,59.86
2018-05-31T22:42:02.181Z,60.39
2018-05-31T22:44:28.472Z,60.93
2018-05-31T22:46:54.760Z,61.35
2018-05-31T22:49:21.053Z,61.34
2018-05-31T22:51:47.344Z,61.51
2018-05-31T22:54:13.638Z,61.67
2018-05-31T22:56:39.937Z,62.26
2018-05-31T22:59:06.274Z,62.47
2018-05-31T23:01:32.563Z,62.31
2018-05-31T23:03:58.858Z,62.83
2018-05-31T23:06:25.186Z,62.72
2018-05-31T23:08:51.489Z,62.71
2018-05-31T23:11:17.779Z,62.44
2018-05-31T23:13:44.080Z,62.83
2018-05-31T23:16:10.373Z,63.55
2018-05-31T23:18:36.716Z,63.59
2018-05-31T23:21:03.014Z,63.63
2018-05-31T23:23:29.301Z,63.38
2018-05-31T23:25:55.589Z,63.10
2018-05-31T23:28:21.881Z,62.30
2018-05-31T23:30:48.177Z,62.28
2018-05-31T23:33:14.512Z,62.45
2018-05-31T23:35:40.855Z,63.18
2018-05-31T23:38:07.094Z,63.28
2018-05-31T23:40:33.383Z,63.74
2018-05-31T23:42:59.675Z,63.29
2018-05-31T23:45:25.969Z,63.52
2018-05-31T23:47:52.256Z,63.40
2018-05-31T23:50:18.548Z,62.73
2018-05-31T23:52:44.842Z,62.81
2018-05-31T23:55:11.139Z,63.18
2018-05-31T23:57:37.425Z,62.77
